Time;durP1;ratioP1;P1;durP2;ratioP2;P2;SDS_P1;SDS_P2;PMS_P1;PMS_P2;Temp;Humidity;BMP_temperature;BMP_pressure;BME280_temperature;BME280_humidity;BME280_pressure;Samples;Min_cycle;Max_cycle;Signal;HPM_P1;HPM_P2
2022/07/01 00:00:27;;;;;;;;;;;18.60;99.90;;;;;;4950638;28;19926;-72
2022/07/01 00:02:54;;;;;;;;;;;18.70;99.90;;;;;;4942875;29;19968;-72
2022/07/01 00:05:20;;;;;;;;;;;18.60;99.90;;;;;;4933048;28;19943;-72
2022/07/01 00:07:52;;;;;;;;;;;18.60;99.90;;;;;;4956573;28;20298;-72
2022/07/01 00:10:24;;;;;;;;;;;18.50;99.90;;;;;;4945828;28;20017;-72
2022/07/01 00:12:51;;;;;;;;;;;18.50;99.90;;;;;;4945559;29;19933;-72
2022/07/01 00:15:22;;;;;;;;;;;18.50;99.90;;;;;;4933087;28;19986;-72
2022/07/01 00:17:54;;;;;;;;;;;18.40;99.90;;;;;;4941355;28;19926;-72
2022/07/01 00:20:26;;;;;;;;;;;18.30;99.90;;;;;;4939007;29;20025;-72
2022/07/01 00:22:57;;;;;;;;;;;18.30;99.90;;;;;;4946285;28;20028;-72
2022/07/01 00:25:29;;;;;;;;;;;18.30;99.90;;;;;;4939149;28;19981;-72
2022/07/01 00:28:01;;;;;;;;;;;18.20;99.90;;;;;;4948449;29;19958;-72
2022/07/01 00:30:28;;;;;;;;;;;18.10;99.90;;;;;;4947001;28;19927;-72
2022/07/01 00:32:59;;;;;;;;;;;18.20;99.90;;;;;;4937636;29;20009;-72
2022/07/01 00:35:31;;;;;;;;;;;18.20;99.90;;;;;;4925339;29;20021;-72
2022/07/01 00:38:03;;;;;;;;;;;18.10;99.90;;;;;;4942280;29;20029;-71
2022/07/01 00:40:29;;;;;;;;;;;18.10;99.90;;;;;;4942027;28;19997;-72
2022/07/01 00:42:56;;;;;;;;;;;18.10;99.90;;;;;;4943790;29;19954;-72
2022/07/01 00:45:28;;;;;;;;;;;18.10;99.90;;;;;;4936496;28;19937;-72
2022/07/01 00:48:00;;;;;;;;;;;18.10;99.90;;;;;;4953699;28;19933;-72
2022/07/01 00:50:32;;;;;;;;;;;18.10;99.90;;;;;;4950270;28;19976;-72
2022/07/01 00:53:04;;;;;;;;;;;18.20;99.90;;;;;;4945257;29;19976;-71
2022/07/01 00:55:36;;;;;;;;;;;18.10;99.90;;;;;;4941511;28;19922;-72
2022/07/01 00:58:08;;;;;;;;;;;18.10;99.90;;;;;;4941767;29;19922;-72
2022/07/01 01:00:36;;;;;;;;;;;18.10;99.90;;;;;;4943288;29;19922;-71
2022/07/01 01:03:02;;;;;;;;;;;18.10;99.90;;;;;;4940053;28;19929;-71
2022/07/01 01:05:34;;;;;;;;;;;18.00;99.90;;;;;;4930907;28;20030;-71
2022/07/01 01:08:01;;;;;;;;;;;18.00;99.90;;;;;;4936753;29;19930;-71
2022/07/01 01:10:32;;;;;;;;;;;18.00;99.90;;;;;;4945590;28;19923;-72
2022/07/01 01:13:04;;;;;;;;;;;18.00;99.90;;;;;;4949998;29;19965;-71
2022/07/01 01:15:37;;;;;;;;;;;17.90;99.90;;;;;;4939498;29;19945;-72
2022/07/01 01:18:08;;;;;;;;;;;17.90;99.90;;;;;;4941970;29;20386;-71
2022/07/01 01:20:40;;;;;;;;;;;18.00;99.90;;;;;;4939583;29;19934;-71
2022/07/01 01:23:12;;;;;;;;;;;17.90;99.90;;;;;;4955212;28;19923;-71
2022/07/01 01:25:46;;;;;;;;;;;17.80;99.90;;;;;;4933044;28;20754;-71
2022/07/01 01:28:18;;;;;;;;;;;17.80;99.90;;;;;;4946529;28;20403;-72
2022/07/01 01:30:49;;;;;;;;;;;17.80;99.90;;;;;;4947453;29;19922;-72
2022/07/01 01:33:21;;;;;;;;;;;17.70;99.90;;;;;;4941011;29;19942;-71
2022/07/01 01:35:52;;;;;;;;;;;17.60;99.90;;;;;;4936431;29;19926;-71
2022/07/01 01:38:24;;;;;;;;;;;17.60;99.90;;;;;;4954234;28;20086;-71
2022/07/01 01:40:56;;;;;;;;;;;17.50;99.90;;;;;;4967022;28;19927;-71
2022/07/01 01:43:28;;;;;;;;;;;17.50;99.90;;;;;;4950199;29;19933;-72
2022/07/01 01:46:01;;;;;;;;;;;17.50;99.90;;;;;;4935256;29;19929;-72
2022/07/01 01:48:33;;;;;;;;;;;17.40;99.90;;;;;;4939154;29;19926;-72
2022/07/01 01:51:04;;;;;;;;;;;17.40;99.90;;;;;;4947799;28;19929;-71
2022/07/01 01:53:36;;;;;;;;;;;17.40;99.90;;;;;;4940256;29;19946;-71
2022/07/01 01:56:08;;;;;;;;;;;17.40;99.90;;;;;;4931664;29;19934;-72
2022/07/01 01:58:34;;;;;;;;;;;17.40;99.90;;;;;;4940502;29;19927;-72
2022/07/01 02:01:06;;;;;;;;;;;17.40;99.90;;;;;;4943793;29;19948;-72
2022/07/01 02:03:38;;;;;;;;;;;17.30;99.90;;;;;;4949071;28;19937;-71
2022/07/01 02:06:11;;;;;;;;;;;17.30;99.90;;;;;;4917366;29;19922;-72
2022/07/01 02:08:43;;;;;;;;;;;17.40;99.90;;;;;;4940988;29;19954;-72
2022/07/01 02:11:14;;;;;;;;;;;17.30;99.90;;;;;;4937402;29;19926;-71
2022/07/01 02:13:46;;;;;;;;;;;17.30;99.90;;;;;;4923551;29;19930;-72
2022/07/01 02:16:18;;;;;;;;;;;17.20;99.90;;;;;;4939837;29;20292;-71
2022/07/01 02:18:49;;;;;;;;;;;17.30;99.90;;;;;;4940799;28;19923;-71
2022/07/01 02:21:16;;;;;;;;;;;17.30;99.90;;;;;;4943820;29;19930;-72
2022/07/01 02:23:48;;;;;;;;;;;17.30;99.90;;;;;;4947388;28;19930;-72
2022/07/01 02:26:19;;;;;;;;;;;17.30;99.90;;;;;;4930335;28;19922;-72
2022/07/01 02:28:46;;;;;;;;;;;17.30;99.90;;;;;;4942470;29;20379;-72
2022/07/01 02:31:13;;;;;;;;;;;17.20;99.90;;;;;;4951061;29;19926;-72
2022/07/01 02:33:44;;;;;;;;;;;17.20;99.90;;;;;;4931976;29;19923;-72
2022/07/01 02:36:11;;;;;;;;;;;17.10;99.90;;;;;;4934774;29;19922;-72
2022/07/01 02:38:43;;;;;;;;;;;17.00;99.90;;;;;;4944564;29;19930;-72
2022/07/01 02:41:14;;;;;;;;;;;16.90;99.90;;;;;;4930563;29;20303;-72
2022/07/01 02:43:46;;;;;;;;;;;16.90;99.90;;;;;;4931787;29;19930;-72
2022/07/01 02:46:18;;;;;;;;;;;16.90;99.90;;;;;;4937435;29;20013;-72
2022/07/01 02:48:49;;;;;;;;;;;16.90;99.90;;;;;;4940886;28;19929;-72
2022/07/01 02:51:16;;;;;;;;;;;16.80;99.90;;;;;;4942799;29;20387;-72
2022/07/01 02:53:48;;;;;;;;;;;16.80;99.90;;;;;;4952370;28;20406;-72
2022/07/01 02:56:19;;;;;;;;;;;16.80;99.90;;;;;;4932738;28;20112;-72
2022/07/01 02:58:51;;;;;;;;;;;16.90;99.90;;;;;;4952478;28;19926;-72
2022/07/01 03:01:23;;;;;;;;;;;16.90;99.90;;;;;;4938407;29;19922;-72
2022/07/01 03:03:55;;;;;;;;;;;17.00;99.90;;;;;;4940696;28;19922;-72
2022/07/01 03:06:21;;;;;;;;;;;17.00;99.90;;;;;;4933911;28;20705;-72
2022/07/01 03:08:53;;;;;;;;;;;17.00;99.90;;;;;;4944293;29;19929;-72
2022/07/01 03:11:25;;;;;;;;;;;17.00;99.90;;;;;;4942213;28;20388;-72
2022/07/01 03:13:57;;;;;;;;;;;17.00;99.90;;;;;;4942843;28;19942;-73
2022/07/01 03:16:28;;;;;;;;;;;17.00;99.90;;;;;;4935460;29;19923;-73
2022/07/01 03:19:01;;;;;;;;;;;17.00;99.90;;;;;;4923241;29;19933;-72
2022/07/01 03:21:33;;;;;;;;;;;17.00;99.90;;;;;;4945310;29;20406;-72
2022/07/01 03:24:04;;;;;;;;;;;17.00;99.90;;;;;;4947251;28;20021;-72
2022/07/01 03:26:31;;;;;;;;;;;17.10;99.90;;;;;;4943464;29;19923;-72
2022/07/01 03:29:03;;;;;;;;;;;17.10;99.90;;;;;;4947087;28;19926;-72
2022/07/01 03:31:34;;;;;;;;;;;17.10;99.90;;;;;;4950655;28;20029;-72
2022/07/01 03:34:06;;;;;;;;;;;17.10;99.90;;;;;;4935380;29;19926;-73
2022/07/01 03:36:37;;;;;;;;;;;17.10;99.90;;;;;;4941007;29;19926;-73
2022/07/01 03:39:04;;;;;;;;;;;17.10;99.90;;;;;;4944869;29;20406;-72
2022/07/01 03:41:36;;;;;;;;;;;17.10;99.90;;;;;;4943648;29;19927;-73
2022/07/01 03:44:07;;;;;;;;;;;17.10;99.90;;;;;;4951451;28;19922;-73
2022/07/01 03:46:39;;;;;;;;;;;17.20;99.90;;;;;;4937311;28;20393;-72
2022/07/01 03:49:11;;;;;;;;;;;17.20;99.90;;;;;;4948270;28;19922;-72
2022/07/01 03:51:37;;;;;;;;;;;17.30;99.90;;;;;;4950885;29;19926;-72
2022/07/01 03:54:52;;;;;;;;;;;17.30;99.90;;;;;;4940045;28;19949;-72
2022/07/01 03:57:05;;;;;;;;;;;17.40;99.90;;;;;;4936295;29;19934;-72
2022/07/01 03:59:37;;;;;;;;;;;17.50;99.90;;;;;;4945885;28;19926;-72
2022/07/01 04:02:04;;;;;;;;;;;17.50;99.90;;;;;;4946846;29;19928;-73
2022/07/01 04:04:36;;;;;;;;;;;17.50;99.90;;;;;;4937262;28;19934;-73
2022/07/01 04:07:04;;;;;;;;;;;17.50;99.90;;;;;;4940306;29;19922;-72
2022/07/01 04:09:36;;;;;;;;;;;17.40;99.90;;;;;;4929724;29;19926;-72
2022/07/01 04:12:09;;;;;;;;;;;17.40;99.90;;;;;;4937046;29;19929;-72
2022/07/01 04:14:40;;;;;;;;;;;17.40;99.90;;;;;;4933084;28;19923;-73
2022/07/01 04:17:12;;;;;;;;;;;17.30;99.90;;;;;;4939572;29;20008;-72
2022/07/01 04:19:44;;;;;;;;;;;17.30;99.90;;;;;;4938890;29;19929;-73
2022/07/01 04:22:35;;;;;;;;;;;17.20;99.90;;;;;;4944184;29;19927;-73
2022/07/01 04:25:07;;;;;;;;;;;17.20;99.90;;;;;;4934462;28;19923;-73
2022/07/01 04:27:39;;;;;;;;;;;17.20;99.90;;;;;;4939562;29;19933;-72
2022/07/01 04:30:06;;;;;;;;;;;17.20;99.90;;;;;;4921467;29;20363;-73
2022/07/01 04:32:37;;;;;;;;;;;17.30;99.90;;;;;;4949109;29;19930;-73
2022/07/01 04:35:11;;;;;;;;;;;17.30;99.90;;;;;;4934961;29;20382;-73
2022/07/01 04:37:38;;;;;;;;;;;17.30;99.90;;;;;;4936761;29;19922;-73
2022/07/01 04:40:10;;;;;;;;;;;17.20;99.90;;;;;;4945858;28;20407;-73
2022/07/01 04:42:42;;;;;;;;;;;17.30;99.90;;;;;;4945024;28;20422;-73
2022/07/01 04:45:13;;;;;;;;;;;17.10;99.90;;;;;;4951454;28;19927;-73
2022/07/01 04:47:45;;;;;;;;;;;16.60;99.90;;;;;;4941048;29;19929;-72
2022/07/01 04:50:12;;;;;;;;;;;16.30;99.90;;;;;;4944075;29;19922;-72
2022/07/01 04:52:39;;;;;;;;;;;16.10;99.90;;;;;;4945158;29;19993;-72
2022/07/01 04:55:10;;;;;;;;;;;16.00;99.90;;;;;;4936521;29;20410;-72
2022/07/01 04:57:42;;;;;;;;;;;15.80;99.90;;;;;;4921576;29;19923;-72
2022/07/01 05:00:14;;;;;;;;;;;15.60;99.90;;;;;;4950437;28;20307;-72
2022/07/01 05:02:45;;;;;;;;;;;15.50;99.90;;;;;;4940367;29;19954;-73
2022/07/01 05:05:12;;;;;;;;;;;15.30;99.90;;;;;;4934886;29;19933;-72
2022/07/01 05:07:39;;;;;;;;;;;15.20;99.90;;;;;;4942285;28;19930;-72
2022/07/01 05:10:10;;;;;;;;;;;15.10;99.90;;;;;;4962530;29;19927;-72
2022/07/01 05:12:42;;;;;;;;;;;15.00;99.90;;;;;;4964614;29;19923;-72
2022/07/01 05:15:09;;;;;;;;;;;15.00;99.90;;;;;;4938514;28;20306;-72
2022/07/01 05:23:12;;;;;;;;;;;14.60;99.90;;;;;;4939119;29;19976;-72
2022/07/01 05:25:39;;;;;;;;;;;14.60;99.90;;;;;;4933912;29;20363;-72
2022/07/01 05:28:06;;;;;;;;;;;14.60;99.90;;;;;;4953419;28;19938;-72
2022/07/01 05:30:37;;;;;;;;;;;14.60;99.90;;;;;;4935970;28;20370;-72
2022/07/01 05:33:04;;;;;;;;;;;14.60;99.90;;;;;;4949836;28;19923;-72
2022/07/01 05:35:36;;;;;;;;;;;14.50;99.90;;;;;;4933431;28;19938;-72
2022/07/01 05:38:07;;;;;;;;;;;14.50;99.90;;;;;;4955769;28;19922;-72
2022/07/01 05:40:39;;;;;;;;;;;14.60;99.90;;;;;;4941103;29;20462;-72
2022/07/01 05:43:11;;;;;;;;;;;14.60;99.90;;;;;;4937362;28;20012;-72
2022/07/01 05:45:38;;;;;;;;;;;14.50;99.90;;;;;;4934161;29;19922;-72
2022/07/01 05:48:04;;;;;;;;;;;14.50;99.90;;;;;;4955143;28;19965;-71
2022/07/01 05:50:31;;;;;;;;;;;14.50;99.90;;;;;;4945019;29;19927;-72
2022/07/01 05:53:03;;;;;;;;;;;14.50;99.90;;;;;;4954629;28;19926;-72
2022/07/01 05:55:34;;;;;;;;;;;14.50;99.90;;;;;;4931217;28;19930;-72
2022/07/01 05:58:08;;;;;;;;;;;14.50;99.90;;;;;;4961301;28;19932;-73
2022/07/01 06:00:42;;;;;;;;;;;14.50;99.90;;;;;;4961199;28;19933;-73
2022/07/01 06:03:14;;;;;;;;;;;14.60;99.90;;;;;;4943055;28;19923;-72
2022/07/01 06:05:41;;;;;;;;;;;14.50;99.90;;;;;;4924800;29;19922;-72
2022/07/01 06:08:08;;;;;;;;;;;14.40;99.90;;;;;;4936372;29;20290;-73
2022/07/01 06:10:40;;;;;;;;;;;14.40;99.90;;;;;;4929708;29;20013;-73
2022/07/01 06:13:11;;;;;;;;;;;14.40;99.90;;;;;;4950598;28;19969;-72
2022/07/01 06:15:43;;;;;;;;;;;14.50;99.90;;;;;;4935141;29;19929;-72
2022/07/01 06:18:15;;;;;;;;;;;14.50;99.90;;;;;;4952976;28;19926;-72
2022/07/01 06:20:46;;;;;;;;;;;14.40;99.90;;;;;;4943732;28;19930;-73
2022/07/01 06:23:18;;;;;;;;;;;14.40;99.90;;;;;;4956165;28;19927;-72
2022/07/01 06:25:45;;;;;;;;;;;14.40;99.90;;;;;;4940538;28;19929;-72
2022/07/01 06:28:17;;;;;;;;;;;14.50;99.90;;;;;;4953967;28;20383;-72
2022/07/01 06:30:49;;;;;;;;;;;14.40;99.90;;;;;;4948059;29;19929;-73
2022/07/01 06:33:20;;;;;;;;;;;14.40;99.90;;;;;;4942402;29;19922;-73
2022/07/01 06:35:52;;;;;;;;;;;14.30;99.90;;;;;;4934886;28;19924;-73
2022/07/01 06:38:19;;;;;;;;;;;14.20;99.90;;;;;;4939300;29;19923;-73
2022/07/01 06:43:35;;;;;;;;;;;14.00;99.90;;;;;;4947789;28;19927;-72
2022/07/01 06:46:07;;;;;;;;;;;14.00;99.90;;;;;;4926982;29;19923;-72
2022/07/01 06:48:39;;;;;;;;;;;13.90;99.90;;;;;;4944547;29;19923;-71
2022/07/01 06:51:10;;;;;;;;;;;13.90;99.90;;;;;;4945411;29;20383;-72
2022/07/01 06:53:44;;;;;;;;;;;13.80;99.90;;;;;;4931135;28;19923;-72
2022/07/01 06:56:16;;;;;;;;;;;13.80;99.90;;;;;;4928975;29;19922;-72
2022/07/01 06:58:43;;;;;;;;;;;13.80;99.90;;;;;;4933774;29;19930;-72
2022/07/01 07:01:15;;;;;;;;;;;13.70;99.90;;;;;;4952984;28;20413;-72
2022/07/01 07:03:46;;;;;;;;;;;13.70;99.90;;;;;;4942499;28;19926;-72
2022/07/01 07:06:18;;;;;;;;;;;13.70;99.90;;;;;;4934046;29;19926;-72
2022/07/01 07:08:50;;;;;;;;;;;13.70;99.90;;;;;;4949753;28;20037;-72
2022/07/01 07:11:21;;;;;;;;;;;13.70;99.90;;;;;;4952497;28;20375;-72
2022/07/01 07:13:53;;;;;;;;;;;13.70;99.90;;;;;;4938277;29;19930;-73
2022/07/01 07:16:26;;;;;;;;;;;13.70;99.90;;;;;;4949437;28;19922;-72
2022/07/01 07:18:58;;;;;;;;;;;13.70;99.90;;;;;;4927469;29;19929;-72
2022/07/01 07:21:24;;;;;;;;;;;13.70;99.90;;;;;;4953559;28;19922;-72
2022/07/01 07:23:56;;;;;;;;;;;13.80;99.90;;;;;;4953840;28;20039;-71
2022/07/01 07:26:28;;;;;;;;;;;13.80;99.90;;;;;;4940683;29;20017;-71
2022/07/01 07:28:59;;;;;;;;;;;13.80;99.90;;;;;;4935871;29;19922;-72
2022/07/01 07:31:31;;;;;;;;;;;13.80;99.90;;;;;;4947811;28;19957;-71
2022/07/01 07:33:58;;;;;;;;;;;13.80;99.90;;;;;;4951169;28;19926;-72
2022/07/01 07:36:24;;;;;;;;;;;13.90;99.90;;;;;;4943352;28;19923;-72
2022/07/01 07:38:51;;;;;;;;;;;13.90;99.90;;;;;;4934505;29;20400;-72
2022/07/01 07:41:22;;;;;;;;;;;13.90;99.90;;;;;;4920190;29;19927;-72
2022/07/01 07:43:54;;;;;;;;;;;14.00;99.90;;;;;;4940431;28;19962;-71
2022/07/01 07:46:26;;;;;;;;;;;14.00;99.90;;;;;;4942415;29;19923;-71
2022/07/01 07:48:53;;;;;;;;;;;14.00;99.90;;;;;;4931467;29;20303;-71
2022/07/01 07:51:25;;;;;;;;;;;13.90;99.90;;;;;;4934686;29;20419;-71
2022/07/01 07:53:56;;;;;;;;;;;13.90;99.90;;;;;;4936628;29;19922;-71
2022/07/01 07:56:29;;;;;;;;;;;13.90;99.90;;;;;;4951536;28;20303;-71
2022/07/01 07:58:55;;;;;;;;;;;14.00;99.90;;;;;;4933502;29;19927;-71
2022/07/01 08:01:22;;;;;;;;;;;14.10;99.90;;;;;;4955263;28;19969;-71
2022/07/01 08:03:53;;;;;;;;;;;14.10;99.90;;;;;;4936847;29;19923;-72
2022/07/01 08:06:25;;;;;;;;;;;14.00;99.90;;;;;;4945038;28;19931;-71
2022/07/01 08:08:57;;;;;;;;;;;14.00;99.90;;;;;;4932095;29;19927;-71
2022/07/01 08:11:29;;;;;;;;;;;14.10;99.90;;;;;;4937157;29;19923;-72
2022/07/01 08:14:00;;;;;;;;;;;14.10;99.90;;;;;;4933127;29;19961;-72
2022/07/01 08:16:32;;;;;;;;;;;14.10;99.90;;;;;;4950520;28;19937;-71
2022/07/01 08:19:04;;;;;;;;;;;14.10;99.90;;;;;;4939806;29;20009;-72
2022/07/01 08:21:35;;;;;;;;;;;14.10;99.90;;;;;;4954657;28;19961;-72
2022/07/01 08:24:07;;;;;;;;;;;14.20;99.90;;;;;;4937298;28;19923;-71
2022/07/01 08:26:38;;;;;;;;;;;14.20;99.90;;;;;;4940412;28;19923;-72
2022/07/01 08:29:05;;;;;;;;;;;14.20;99.90;;;;;;4939605;29;20001;-72
2022/07/01 08:31:37;;;;;;;;;;;14.20;99.90;;;;;;4939283;29;19933;-73
2022/07/01 08:34:09;;;;;;;;;;;14.30;99.90;;;;;;4946615;28;20452;-73
2022/07/01 08:36:41;;;;;;;;;;;14.30;99.90;;;;;;4950247;28;19962;-72
2022/07/01 08:39:12;;;;;;;;;;;14.30;99.90;;;;;;4956528;28;19989;-72
2022/07/01 08:41:40;;;;;;;;;;;14.40;99.90;;;;;;4961680;29;19918;-72
2022/07/01 08:44:12;;;;;;;;;;;14.50;99.90;;;;;;4956115;28;19934;-72
2022/07/01 08:46:43;;;;;;;;;;;14.50;99.90;;;;;;4936111;29;20399;-72
2022/07/01 08:49:15;;;;;;;;;;;14.50;99.90;;;;;;4949480;28;19922;-72
2022/07/01 08:51:47;;;;;;;;;;;14.60;99.90;;;;;;4938314;28;19922;-72
2022/07/01 08:54:19;;;;;;;;;;;14.60;99.90;;;;;;4937113;29;19981;-72
2022/07/01 08:56:50;;;;;;;;;;;14.70;99.90;;;;;;4936434;28;19930;-72
2022/07/01 08:59:24;;;;;;;;;;;14.70;99.90;;;;;;4952043;28;19922;-73
2022/07/01 09:02:04;;;;;;;;;;;14.70;99.90;;;;;;4939901;29;20407;-72
2022/07/01 09:04:35;;;;;;;;;;;14.60;99.90;;;;;;4932392;29;19938;-72
2022/07/01 09:07:07;;;;;;;;;;;14.60;99.90;;;;;;4937283;29;19926;-72
2022/07/01 09:09:39;;;;;;;;;;;14.60;99.90;;;;;;4935954;29;19990;-71
2022/07/01 09:12:11;;;;;;;;;;;14.60;99.90;;;;;;4936855;29;19934;-72
2022/07/01 09:14:43;;;;;;;;;;;14.60;99.90;;;;;;4933434;29;19922;-72
2022/07/01 09:17:18;;;;;;;;;;;14.50;99.90;;;;;;4944430;29;19929;-72
2022/07/01 09:19:52;;;;;;;;;;;14.60;99.90;;;;;;4945225;28;20395;-72
2022/07/01 09:22:25;;;;;;;;;;;14.60;99.90;;;;;;4940976;29;19922;-72
2022/07/01 09:24:57;;;;;;;;;;;14.60;99.90;;;;;;4941390;29;19950;-72
2022/07/01 09:27:28;;;;;;;;;;;14.70;99.90;;;;;;4958988;28;19964;-71
2022/07/01 09:30:00;;;;;;;;;;;14.70;99.90;;;;;;4963705;28;19929;-72
2022/07/01 09:32:31;;;;;;;;;;;14.60;99.90;;;;;;4938513;29;19926;-71
2022/07/01 09:35:03;;;;;;;;;;;14.60;99.90;;;;;;4942313;28;19929;-72
2022/07/01 09:37:31;;;;;;;;;;;14.50;99.90;;;;;;4941230;29;19930;-72
2022/07/01 09:40:03;;;;;;;;;;;14.50;99.90;;;;;;4935984;29;20399;-72
2022/07/01 09:42:43;;;;;;;;;;;14.60;99.90;;;;;;4951201;29;19978;-72
2022/07/01 09:45:15;;;;;;;;;;;14.60;99.90;;;;;;4936859;29;19923;-72
2022/07/01 09:47:44;;;;;;;;;;;14.60;99.90;;;;;;4955130;29;19926;-72
2022/07/01 09:50:16;;;;;;;;;;;14.70;99.90;;;;;;4944107;28;19922;-72
2022/07/01 09:52:48;;;;;;;;;;;14.70;99.90;;;;;;4935260;29;19966;-73
2022/07/01 09:55:14;;;;;;;;;;;14.70;99.90;;;;;;4948640;28;19930;-72
2022/07/01 09:57:46;;;;;;;;;;;14.70;99.90;;;;;;4922757;29;19922;-72
2022/07/01 10:00:13;;;;;;;;;;;14.80;99.90;;;;;;4944131;29;19929;-72
2022/07/01 10:02:39;;;;;;;;;;;14.70;99.90;;;;;;4946566;28;19964;-72
2022/07/01 10:05:13;;;;;;;;;;;14.70;99.90;;;;;;4929054;29;19930;-72
2022/07/01 10:07:58;;;;;;;;;;;14.70;99.90;;;;;;4929296;29;19929;-72
2022/07/01 10:10:29;;;;;;;;;;;14.70;99.90;;;;;;4934058;29;20383;-72
2022/07/01 10:13:02;;;;;;;;;;;14.70;99.90;;;;;;4946058;29;20532;-72
2022/07/01 10:15:29;;;;;;;;;;;14.80;99.90;;;;;;4914054;29;19939;-72
2022/07/01 10:18:02;;;;;;;;;;;14.90;99.90;;;;;;4946268;29;20017;-71
2022/07/01 10:20:33;;;;;;;;;;;14.90;99.90;;;;;;4944969;28;19974;-72
2022/07/01 10:23:01;;;;;;;;;;;15.00;99.90;;;;;;4938382;29;19923;-72
2022/07/01 10:25:43;;;;;;;;;;;15.00;99.90;;;;;;4917106;29;20326;-72
2022/07/01 10:28:15;;;;;;;;;;;15.00;99.90;;;;;;4931245;29;19942;-73
2022/07/01 10:30:51;;;;;;;;;;;15.10;99.90;;;;;;4939898;29;20395;-71
2022/07/01 10:33:29;;;;;;;;;;;15.10;99.90;;;;;;4958306;28;19922;-72
2022/07/01 10:36:24;;;;;;;;;;;15.00;99.90;;;;;;4934835;28;20436;-72
2022/07/01 10:41:35;;;;;;;;;;;15.10;99.90;;;;;;4935580;29;20399;-72
2022/07/01 10:44:08;;;;;;;;;;;15.10;99.90;;;;;;4924986;29;19926;-71
2022/07/01 10:46:44;;;;;;;;;;;15.10;99.90;;;;;;4934899;29;20279;-72
2022/07/01 10:49:15;;;;;;;;;;;15.20;99.90;;;;;;4933896;29;20558;-71
2022/07/01 10:51:45;;;;;;;;;;;15.20;99.90;;;;;;4938097;29;19933;-71
2022/07/01 10:54:45;;;;;;;;;;;15.20;99.90;;;;;;4952820;28;19923;-72
2022/07/01 10:57:19;;;;;;;;;;;15.20;99.90;;;;;;4935209;29;19943;-72
2022/07/01 11:00:00;;;;;;;;;;;15.10;99.90;;;;;;4955183;28;19926;-71
2022/07/01 11:02:28;;;;;;;;;;;15.10;99.90;;;;;;4942656;29;20351;-72
2022/07/01 11:05:02;;;;;;;;;;;15.10;99.90;;;;;;4946199;28;19922;-72
2022/07/01 11:07:30;;;;;;;;;;;15.10;99.90;;;;;;4931215;29;19929;-72
2022/07/01 11:09:58;;;;;;;;;;;15.20;99.90;;;;;;4942856;28;19922;-72
2022/07/01 11:12:27;;;;;;;;;;;15.20;99.90;;;;;;4943230;29;19927;-72
2022/07/01 11:14:59;;;;;;;;;;;15.30;99.90;;;;;;4938257;29;20393;-72
2022/07/01 11:17:31;;;;;;;;;;;15.20;99.90;;;;;;4916081;29;19923;-72
2022/07/01 11:20:03;;;;;;;;;;;15.20;99.90;;;;;;4938371;29;20264;-72
2022/07/01 11:22:35;;;;;;;;;;;15.30;99.90;;;;;;4941704;29;19940;-72
2022/07/01 11:25:08;;;;;;;;;;;15.30;99.90;;;;;;4939013;28;19923;-72
2022/07/01 11:27:35;;;;;;;;;;;15.40;99.90;;;;;;4933011;29;19986;-72
2022/07/01 11:30:08;;;;;;;;;;;15.30;99.90;;;;;;4950366;29;19922;-72
2022/07/01 11:32:46;;;;;;;;;;;15.40;99.90;;;;;;4915619;29;20027;-72
2022/07/01 11:41:18;;;;;;;;;;;15.10;99.90;;;;;;4952244;29;20017;-72
2022/07/01 11:43:44;;;;;;;;;;;15.10;99.90;;;;;;4946073;28;19923;-72
2022/07/01 11:46:16;;;;;;;;;;;15.20;99.90;;;;;;4951528;28;19961;-72
2022/07/01 11:48:49;;;;;;;;;;;15.10;99.90;;;;;;4940077;29;19957;-72
2022/07/01 11:51:20;;;;;;;;;;;15.20;99.90;;;;;;4928111;28;20009;-73
2022/07/01 11:53:54;;;;;;;;;;;15.10;99.90;;;;;;4945455;28;20299;-72
2022/07/01 11:56:33;;;;;;;;;;;15.10;99.90;;;;;;4929023;28;19923;-72
2022/07/01 11:59:01;;;;;;;;;;;15.10;99.90;;;;;;4952876;28;20354;-72
2022/07/01 12:01:34;;;;;;;;;;;15.10;99.90;;;;;;4935225;28;20014;-73
2022/07/01 12:04:07;;;;;;;;;;;15.10;99.90;;;;;;4937068;28;19929;-74
2022/07/01 12:06:41;;;;;;;;;;;14.90;99.90;;;;;;4928665;29;19923;-73
2022/07/01 12:09:16;;;;;;;;;;;14.90;99.90;;;;;;4968707;28;19927;-72
2022/07/01 12:11:49;;;;;;;;;;;14.90;99.90;;;;;;4961368;28;19985;-72
2022/07/01 12:14:24;;;;;;;;;;;14.80;99.90;;;;;;4931968;29;20029;-72
2022/07/01 12:16:57;;;;;;;;;;;14.70;99.90;;;;;;4947391;28;20295;-73
2022/07/01 12:19:29;;;;;;;;;;;14.70;99.90;;;;;;4946107;29;19935;-73
2022/07/01 12:22:00;;;;;;;;;;;14.80;99.90;;;;;;4931750;29;19933;-72
2022/07/01 12:24:31;;;;;;;;;;;14.80;99.90;;;;;;4944591;28;20021;-72
2022/07/01 12:27:04;;;;;;;;;;;14.80;99.90;;;;;;4926889;29;19927;-72
2022/07/01 12:29:42;;;;;;;;;;;14.80;99.90;;;;;;4930870;29;19923;-72
2022/07/01 12:32:14;;;;;;;;;;;14.80;99.90;;;;;;4934391;29;19937;-72
2022/07/01 12:34:48;;;;;;;;;;;14.70;99.90;;;;;;4924178;29;19942;-72
2022/07/01 12:37:25;;;;;;;;;;;14.70;99.90;;;;;;4932060;29;19927;-72
2022/07/01 12:39:53;;;;;;;;;;;14.60;99.90;;;;;;4937307;29;19930;-72
2022/07/01 12:42:25;;;;;;;;;;;14.70;99.90;;;;;;4916811;29;20418;-72
2022/07/01 12:44:52;;;;;;;;;;;14.80;99.90;;;;;;4931879;29;19933;-72
2022/07/01 12:47:28;;;;;;;;;;;14.80;99.90;;;;;;4946291;29;20907;-73
2022/07/01 12:50:15;;;;;;;;;;;14.80;99.90;;;;;;4936730;29;19922;-72
2022/07/01 12:52:59;;;;;;;;;;;14.80;99.90;;;;;;4930127;29;19937;-73
2022/07/01 12:55:32;;;;;;;;;;;14.90;99.90;;;;;;4927321;28;19923;-73
2022/07/01 12:57:59;;;;;;;;;;;15.00;99.90;;;;;;4933512;29;19923;-72
2022/07/01 13:00:32;;;;;;;;;;;15.00;99.90;;;;;;4945161;28;19931;-72
2022/07/01 13:03:00;;;;;;;;;;;15.00;99.90;;;;;;4937720;29;19930;-72
2022/07/01 13:05:33;;;;;;;;;;;15.00;99.90;;;;;;4937091;29;19926;-72
2022/07/01 13:08:00;;;;;;;;;;;14.90;99.90;;;;;;4941521;29;19977;-72
2022/07/01 13:10:27;;;;;;;;;;;14.90;99.90;;;;;;4938514;29;19923;-72
2022/07/01 13:12:59;;;;;;;;;;;14.90;99.90;;;;;;4938416;29;19971;-72
2022/07/01 13:15:26;;;;;;;;;;;14.90;99.90;;;;;;4918102;29;20298;-72
2022/07/01 13:17:57;;;;;;;;;;;14.90;99.90;;;;;;4937091;29;19938;-72
2022/07/01 13:20:29;;;;;;;;;;;14.80;99.90;;;;;;4953238;28;20013;-72
2022/07/01 13:23:01;;;;;;;;;;;14.70;99.90;;;;;;4939619;28;20449;-72
2022/07/01 13:25:32;;;;;;;;;;;14.70;99.90;;;;;;4933844;29;19922;-73
2022/07/01 13:28:04;;;;;;;;;;;14.80;99.90;;;;;;4933697;29;19974;-72
2022/07/01 13:30:37;;;;;;;;;;;14.70;99.90;;;;;;4935243;29;19922;-73
2022/07/01 13:33:09;;;;;;;;;;;14.70;99.90;;;;;;4933942;29;19923;-73
2022/07/01 13:35:40;;;;;;;;;;;14.60;99.90;;;;;;4932526;29;20038;-74
2022/07/01 13:38:12;;;;;;;;;;;14.70;99.90;;;;;;4955850;28;19934;-72
2022/07/01 13:40:44;;;;;;;;;;;14.70;99.90;;;;;;4951761;28;19937;-72
2022/07/01 13:43:19;;;;;;;;;;;14.70;99.90;;;;;;4939208;29;19929;-71
2022/07/01 13:45:50;;;;;;;;;;;14.70;99.90;;;;;;4935129;29;20023;-72
2022/07/01 13:48:22;;;;;;;;;;;14.60;99.90;;;;;;4937761;29;19922;-73
2022/07/01 13:50:54;;;;;;;;;;;14.70;99.90;;;;;;4949502;28;19931;-72
2022/07/01 13:53:23;;;;;;;;;;;14.70;99.90;;;;;;4949102;29;19934;-72
2022/07/01 13:55:52;;;;;;;;;;;14.80;99.90;;;;;;4930802;29;19933;-72
2022/07/01 13:58:21;;;;;;;;;;;14.80;99.90;;;;;;4954333;28;20013;-73
2022/07/01 14:00:47;;;;;;;;;;;14.80;99.90;;;;;;4934578;29;19929;-72
2022/07/01 14:03:19;;;;;;;;;;;14.80;99.90;;;;;;4949117;28;19922;-72
2022/07/01 14:05:51;;;;;;;;;;;14.80;99.90;;;;;;4932024;29;19934;-72
2022/07/01 14:08:18;;;;;;;;;;;14.80;99.90;;;;;;4935365;29;19936;-71
2022/07/01 14:10:49;;;;;;;;;;;14.80;99.90;;;;;;4950266;28;19935;-72
2022/07/01 14:13:23;;;;;;;;;;;14.80;99.90;;;;;;4933984;29;19929;-72
2022/07/01 14:15:54;;;;;;;;;;;14.80;99.90;;;;;;4932584;29;19941;-72
2022/07/01 14:18:21;;;;;;;;;;;14.80;99.90;;;;;;4923991;29;20324;-73
2022/07/01 14:20:53;;;;;;;;;;;14.90;99.90;;;;;;4949114;28;19924;-73
2022/07/01 14:23:24;;;;;;;;;;;14.90;99.90;;;;;;4947701;28;19930;-73
2022/07/01 14:25:56;;;;;;;;;;;15.00;99.90;;;;;;4944249;28;19958;-72
2022/07/01 14:28:28;;;;;;;;;;;15.00;99.90;;;;;;4937465;29;19929;-73
2022/07/01 14:31:00;;;;;;;;;;;15.10;99.90;;;;;;4929607;29;19922;-72
2022/07/01 14:33:32;;;;;;;;;;;15.10;99.90;;;;;;4936200;28;20002;-72
2022/07/01 14:36:03;;;;;;;;;;;15.00;99.90;;;;;;4937583;29;20010;-72
2022/07/01 14:38:35;;;;;;;;;;;15.10;99.90;;;;;;4950867;28;20430;-72
2022/07/01 14:41:07;;;;;;;;;;;15.20;99.90;;;;;;4955221;28;19922;-73
2022/07/01 14:43:34;;;;;;;;;;;15.10;99.90;;;;;;4958948;28;19972;-72
2022/07/01 14:46:10;;;;;;;;;;;15.20;99.90;;;;;;4937246;28;19926;-73
2022/07/01 14:48:38;;;;;;;;;;;15.30;99.90;;;;;;4939215;29;20429;-73
2022/07/01 14:51:10;;;;;;;;;;;15.20;99.90;;;;;;4945479;29;19934;-73
2022/07/01 14:53:42;;;;;;;;;;;15.30;99.90;;;;;;4939352;29;19923;-73
2022/07/01 14:56:13;;;;;;;;;;;15.30;99.90;;;;;;4939898;29;19943;-72